Time;durP1;ratioP1;P1;durP2;ratioP2;P2;SDS_P1;SDS_P2;PMS_P1;PMS_P2;Temp;Humidity;BMP_temperature;BMP_pressure;BME280_temperature;BME280_humidity;BME280_pressure;Samples;Min_cycle;Max_cycle;Signal;HPM_P1;HPM_P2
2022/05/04 00:00:28;;;;;;;18.15;13.88;;;17.30;94.70;;;;;;5033883;28;20025;-75
2022/05/04 00:02:54;;;;;;;20.77;13.88;;;17.30;94.60;;;;;;5033864;28;20031;-73
2022/05/04 00:05:20;;;;;;;17.83;14.90;;;17.30;94.60;;;;;;5033615;28;20025;-76
2022/05/04 00:07:46;;;;;;;18.63;14.43;;;17.30;94.60;;;;;;5033505;28;20113;-74
2022/05/04 00:10:13;;;;;;;17.80;14.20;;;17.30;94.70;;;;;;5033787;28;20104;-73
2022/05/04 00:12:39;;;;;;;19.83;14.35;;;17.30;94.70;;;;;;5033875;28;20113;-73
2022/05/04 00:15:05;;;;;;;19.30;14.52;;;17.30;94.60;;;;;;5033365;28;20026;-74
2022/05/04 00:17:31;;;;;;;17.95;14.93;;;17.30;94.60;;;;;;5048650;28;20079;-73
2022/05/04 00:19:57;;;;;;;19.13;14.63;;;17.20;94.50;;;;;;5032104;28;20437;-73
2022/05/04 00:22:25;;;;;;;16.90;14.07;;;17.30;94.60;;;;;;5033827;28;20028;-71
2022/05/04 00:24:51;;;;;;;18.48;14.20;;;17.20;94.70;;;;;;5049047;28;20021;-73
2022/05/04 00:27:17;;;;;;;16.35;13.80;;;17.30;94.20;;;;;;5033898;28;20021;-73
2022/05/04 00:29:43;;;;;;;16.17;14.02;;;17.20;94.10;;;;;;5033435;28;20144;-74
2022/05/04 00:32:13;;;;;;;17.80;14.30;;;17.20;94.10;;;;;;5033372;28;20483;-73
2022/05/04 00:34:39;;;;;;;25.73;15.65;;;17.20;94.30;;;;;;5033555;28;20029;-73
2022/05/04 00:37:06;;;;;;;19.48;15.25;;;17.30;94.40;;;;;;5032962;28;20045;-72
2022/05/04 00:39:33;;;;;;;21.30;15.85;;;17.30;94.70;;;;;;5033353;28;20048;-74
2022/05/04 00:42:11;;;;;;;20.60;15.43;;;17.20;95.00;;;;;;5031770;28;20410;-73
2022/05/04 00:44:38;;;;;;;17.35;14.93;;;17.20;95.20;;;;;;5032976;28;20072;-75
2022/05/04 00:47:05;;;;;;;18.73;14.73;;;17.10;95.20;;;;;;5031790;28;20510;-74
2022/05/04 00:49:31;;;;;;;18.92;13.32;;;17.10;95.20;;;;;;5033045;28;20037;-73
2022/05/04 00:51:56;;;;;;;18.77;14.85;;;17.10;95.10;;;;;;5033137;28;20022;-73
2022/05/04 00:54:22;;;;;;;18.80;15.02;;;17.10;95.00;;;;;;5048219;28;20040;-73
2022/05/04 00:56:48;;;;;;;16.13;13.48;;;17.10;94.90;;;;;;5033050;28;20033;-74
2022/05/04 00:59:14;;;;;;;19.45;13.73;;;17.10;94.80;;;;;;5031564;28;20117;-73
2022/05/04 01:01:41;;;;;;;20.73;15.98;;;17.10;94.80;;;;;;5033127;28;20026;-73
2022/05/04 01:04:06;;;;;;;21.33;16.15;;;17.10;94.80;;;;;;5033275;28;20032;-73
2022/05/04 01:06:33;;;;;;;23.33;17.27;;;17.10;94.90;;;;;;5031668;28;20116;-73
2022/05/04 01:08:59;;;;;;;20.63;15.35;;;17.10;94.80;;;;;;5032982;28;20033;-74
2022/05/04 01:11:25;;;;;;;22.35;16.98;;;17.10;94.90;;;;;;5032860;28;20048;-73
2022/05/04 01:14:02;;;;;;;18.60;16.05;;;17.10;94.80;;;;;;5031535;28;20033;-76
2022/05/04 01:16:28;;;;;;;23.52;17.65;;;17.10;94.90;;;;;;5033284;28;20056;-74
2022/05/04 01:18:55;;;;;;;25.90;19.17;;;17.00;95.00;;;;;;5032968;28;20143;-75
2022/05/04 01:21:21;;;;;;;22.77;18.88;;;17.10;95.20;;;;;;5032749;28;20022;-72
2022/05/04 01:23:47;;;;;;;24.70;20.23;;;17.10;95.40;;;;;;5032926;28;20444;-72
2022/05/04 01:26:17;;;;;;;25.58;20.10;;;17.10;95.50;;;;;;5031672;28;20140;-72
2022/05/04 01:28:46;;;;;;;27.42;20.55;;;17.10;95.50;;;;;;5033126;28;20029;-74
2022/05/04 01:31:12;;;;;;;23.58;18.23;;;17.00;95.60;;;;;;5048053;28;20071;-73
2022/05/04 01:33:39;;;;;;;24.13;18.52;;;17.00;95.70;;;;;;5033086;28;20021;-76
2022/05/04 01:36:08;;;;;;;22.45;18.50;;;17.00;95.80;;;;;;5032554;28;20068;-73
2022/05/04 01:38:36;;;;;;;23.25;17.08;;;17.00;95.70;;;;;;5047868;28;20056;-74
2022/05/04 01:41:03;;;;;;;21.20;15.90;;;16.90;95.60;;;;;;5032645;28;20025;-74
2022/05/04 01:43:29;;;;;;;26.27;15.05;;;16.90;95.50;;;;;;5031467;28;20032;-74
2022/05/04 01:45:55;;;;;;;22.00;15.30;;;16.80;95.40;;;;;;5032991;28;20112;-74
2022/05/04 01:48:21;;;;;;;23.42;16.00;;;16.80;95.30;;;;;;5032651;28;20021;-75
2022/05/04 01:50:47;;;;;;;19.58;14.70;;;16.90;95.30;;;;;;5032445;28;20026;-74
2022/05/04 01:53:13;;;;;;;19.60;15.90;;;16.90;95.10;;;;;;5032514;28;20032;-74
2022/05/04 01:55:41;;;;;;;21.30;17.52;;;16.90;95.00;;;;;;5034236;28;20463;-76
2022/05/04 01:58:07;;;;;;;21.13;15.57;;;16.80;94.80;;;;;;5034661;28;20482;-75
2022/05/04 02:00:33;;;;;;;20.15;17.13;;;16.80;94.70;;;;;;5036266;28;20021;-74
2022/05/04 02:03:00;;;;;;;20.52;16.10;;;16.70;94.70;;;;;;5036189;28;20087;-74
2022/05/04 02:05:26;;;;;;;19.35;16.27;;;16.70;94.80;;;;;;5035998;28;20025;-76
2022/05/04 02:07:53;;;;;;;23.92;17.40;;;16.70;94.70;;;;;;5035951;28;20030;-73
2022/05/04 02:10:19;;;;;;;20.55;17.17;;;16.60;94.70;;;;;;5035833;28;20026;-74
2022/05/04 02:12:45;;;;;;;26.42;18.08;;;16.60;94.90;;;;;;5035861;28;20017;-73
2022/05/04 02:15:11;;;;;;;21.58;17.70;;;16.60;95.10;;;;;;5035937;28;20075;-73
2022/05/04 02:17:38;;;;;;;24.17;18.05;;;16.60;95.40;;;;;;5035820;28;20101;-74
2022/05/04 02:20:04;;;;;;;25.27;19.15;;;16.60;95.60;;;;;;5035727;28;20119;-75
2022/05/04 02:22:31;;;;;;;26.13;20.83;;;16.50;95.80;;;;;;5035623;28;20148;-73
2022/05/04 02:24:57;;;;;;;27.90;20.02;;;16.50;96.10;;;;;;5035462;28;20033;-74
2022/05/04 02:27:22;;;;;;;27.95;23.40;;;16.50;96.60;;;;;;5035884;28;20075;-73
2022/05/04 02:29:48;;;;;;;26.83;22.85;;;16.50;96.90;;;;;;5035626;28;20029;-74
2022/05/04 02:32:14;;;;;;;32.85;25.35;;;16.50;97.20;;;;;;5035369;28;20030;-73
2022/05/04 02:40:09;;;;;;;25.58;20.77;;;16.40;98.00;;;;;;5035834;28;20040;-74
2022/05/04 02:42:36;;;;;;;23.40;19.35;;;16.40;97.80;;;;;;5035490;28;20017;-73
2022/05/04 02:45:05;;;;;;;21.75;17.45;;;16.40;97.70;;;;;;5035158;28;20459;-73
2022/05/04 02:47:31;;;;;;;22.17;16.85;;;16.40;97.50;;;;;;5035178;28;20036;-74
2022/05/04 02:49:57;;;;;;;22.60;15.18;;;16.40;97.10;;;;;;5035324;28;20084;-73
2022/05/04 02:52:23;;;;;;;17.90;15.07;;;16.30;96.90;;;;;;5035189;28;20486;-71
2022/05/04 02:54:49;;;;;;;20.48;15.02;;;16.30;96.70;;;;;;5035201;28;20033;-73
2022/05/04 02:57:14;;;;;;;19.00;15.43;;;16.30;96.60;;;;;;5035238;28;20417;-73
2022/05/04 02:59:40;;;;;;;21.35;15.10;;;16.30;96.40;;;;;;5035165;28;20447;-73
2022/05/04 03:04:50;;;;;;;21.00;15.57;;;16.30;96.30;;;;;;5034798;28;20509;-74
2022/05/04 03:07:16;;;;;;;19.83;15.52;;;16.20;96.20;;;;;;5033589;28;20025;-72
2022/05/04 03:09:41;;;;;;;19.88;14.85;;;16.20;96.30;;;;;;5035207;28;20100;-75
2022/05/04 03:12:07;;;;;;;17.80;15.32;;;16.20;96.20;;;;;;5034794;28;20030;-73
2022/05/04 03:14:33;;;;;;;24.45;19.17;;;16.20;96.30;;;;;;5034520;28;20114;-74
2022/05/04 03:16:59;;;;;;;20.50;17.88;;;16.20;96.40;;;;;;5034423;28;20104;-73
2022/05/04 03:19:25;;;;;;;24.70;17.65;;;16.20;96.60;;;;;;5034708;28;20083;-73
2022/05/04 03:21:52;;;;;;;24.40;18.08;;;16.20;96.80;;;;;;5034530;28;20026;-73
2022/05/04 03:24:18;;;;;;;23.17;17.42;;;16.20;96.80;;;;;;5034291;28;20021;-73
2022/05/04 03:26:44;;;;;;;20.55;15.65;;;16.20;96.80;;;;;;5034766;28;20026;-76
2022/05/04 03:29:10;;;;;;;20.95;15.93;;;16.20;96.80;;;;;;5034509;28;20056;-74
2022/05/04 03:31:37;;;;;;;22.42;14.60;;;16.20;96.70;;;;;;5049705;28;20037;-73
2022/05/04 03:34:03;;;;;;;21.38;15.32;;;16.20;96.60;;;;;;5034276;28;20123;-73
2022/05/04 03:36:29;;;;;;;24.67;15.63;;;16.20;96.50;;;;;;5034215;28;20196;-73
2022/05/04 03:38:55;;;;;;;22.00;16.23;;;16.20;96.50;;;;;;5049462;28;20478;-74
2022/05/04 03:41:21;;;;;;;23.15;15.15;;;16.20;96.50;;;;;;5034120;28;20025;-75
2022/05/04 03:43:47;;;;;;;22.52;16.52;;;16.20;96.20;;;;;;5033996;28;20025;-73
2022/05/04 03:46:15;;;;;;;20.42;16.65;;;16.20;96.20;;;;;;5034174;28;20026;-72
2022/05/04 03:48:41;;;;;;;20.00;16.42;;;16.20;96.40;;;;;;5034228;28;20014;-74
2022/05/04 03:51:07;;;;;;;22.88;18.23;;;16.30;96.20;;;;;;5032834;28;20079;-74
2022/05/04 03:53:33;;;;;;;25.38;16.63;;;16.30;96.20;;;;;;5034194;28;20025;-75
2022/05/04 03:55:59;;;;;;;19.08;15.07;;;16.40;96.10;;;;;;5033986;28;20209;-73
2022/05/04 03:58:24;;;;;;;17.88;13.95;;;16.40;95.70;;;;;;5034099;28;20033;-74
2022/05/04 04:00:50;;;;;;;17.83;14.32;;;16.40;95.40;;;;;;5033919;28;20108;-73
2022/05/04 04:03:17;;;;;;;20.35;14.27;;;16.50;95.30;;;;;;5033971;28;20029;-74
2022/05/04 04:05:42;;;;;;;20.15;13.73;;;16.50;94.90;;;;;;5032425;28;20025;-75
2022/05/04 04:08:08;;;;;;;20.05;13.63;;;16.50;94.80;;;;;;5033587;28;20368;-76
2022/05/04 04:10:34;;;;;;;20.67;13.32;;;16.50;94.60;;;;;;5033603;28;20025;-75
2022/05/04 04:12:59;;;;;;;19.40;12.20;;;16.50;94.50;;;;;;5049001;28;20504;-75
2022/05/04 04:15:25;;;;;;;15.88;12.18;;;16.50;94.30;;;;;;5033485;28;20033;-75
2022/05/04 04:17:51;;;;;;;19.92;12.77;;;16.50;94.10;;;;;;5033295;28;20033;-76
2022/05/04 04:23:01;;;;;;;17.13;12.70;;;16.50;93.60;;;;;;5033595;28;20036;-75
2022/05/04 04:25:27;;;;;;;15.25;11.55;;;16.50;93.60;;;;;;5033497;28;20027;-74
2022/05/04 04:27:52;;;;;;;18.15;11.93;;;16.50;93.50;;;;;;5033426;28;20026;-73
2022/05/04 04:30:18;;;;;;;16.60;11.80;;;16.50;93.30;;;;;;5033553;28;20025;-74
2022/05/04 04:32:44;;;;;;;15.48;11.80;;;16.50;93.30;;;;;;5048692;28;20032;-73
2022/05/04 04:35:09;;;;;;;15.73;10.90;;;16.50;93.10;;;;;;5033104;28;20053;-74
2022/05/04 04:37:35;;;;;;;19.42;11.15;;;16.60;93.00;;;;;;5033106;28;20037;-74
2022/05/04 04:40:01;;;;;;;14.13;10.75;;;16.60;92.80;;;;;;5033364;28;20017;-74
2022/05/04 04:42:26;;;;;;;13.45;10.88;;;16.60;92.70;;;;;;5032915;28;20033;-72
2022/05/04 04:44:52;;;;;;;13.23;11.07;;;16.60;92.50;;;;;;5033120;28;20025;-73
2022/05/04 04:47:18;;;;;;;16.90;11.95;;;16.60;92.30;;;;;;5033376;28;20060;-73
2022/05/04 04:49:43;;;;;;;18.83;12.73;;;16.70;92.30;;;;;;5033038;28;20022;-74
2022/05/04 04:52:09;;;;;;;19.40;13.23;;;16.70;92.40;;;;;;5033102;28;20063;-77
2022/05/04 04:54:35;;;;;;;18.80;13.65;;;16.70;92.40;;;;;;5033093;28;20379;-76
2022/05/04 04:57:00;;;;;;;18.98;14.15;;;16.70;92.50;;;;;;5033016;28;20394;-76
2022/05/04 04:59:26;;;;;;;20.65;14.68;;;16.80;92.60;;;;;;5033189;28;20036;-73
2022/05/04 05:01:52;;;;;;;21.40;14.88;;;16.80;92.80;;;;;;5048215;28;20034;-74
2022/05/04 05:04:17;;;;;;;19.60;15.20;;;16.80;92.80;;;;;;5032957;28;20041;-76
2022/05/04 05:06:44;;;;;;;19.30;15.82;;;16.90;92.90;;;;;;5031656;28;20084;-76
2022/05/04 05:09:09;;;;;;;23.17;15.73;;;17.00;92.90;;;;;;5033142;28;20025;-75
2022/05/04 05:11:35;;;;;;;19.67;14.77;;;17.00;92.80;;;;;;5033092;28;20041;-75
2022/05/04 05:16:45;;;;;;;23.13;16.55;;;17.20;92.80;;;;;;5033131;28;20048;-75
2022/05/04 05:19:11;;;;;;;24.95;17.02;;;17.20;92.80;;;;;;5031781;28;20114;-75
2022/05/04 05:21:38;;;;;;;21.33;16.80;;;17.20;93.10;;;;;;5032924;28;20060;-79
2022/05/04 05:24:06;;;;;;;19.98;16.80;;;17.30;93.10;;;;;;5031758;28;20036;-79
2022/05/04 05:26:32;;;;;;;25.13;16.30;;;17.30;92.90;;;;;;5031770;28;20106;-72
2022/05/04 05:28:58;;;;;;;26.88;18.15;;;17.50;92.60;;;;;;5031568;28;20030;-75
2022/05/04 05:31:24;;;;;;;23.23;16.95;;;17.70;92.30;;;;;;5034580;28;20030;-74
2022/05/04 05:33:50;;;;;;;29.63;16.80;;;17.90;91.90;;;;;;5051807;28;20037;-75
2022/05/04 05:36:15;;;;;;;24.40;16.88;;;18.00;91.40;;;;;;5036317;28;20046;-73
2022/05/04 05:38:41;;;;;;;22.42;17.92;;;18.00;91.20;;;;;;5036335;28;20041;-75
2022/05/04 05:41:07;;;;;;;21.85;16.98;;;18.10;90.70;;;;;;5036440;28;20379;-69
2022/05/04 05:43:32;;;;;;;25.95;17.08;;;18.30;90.40;;;;;;5036162;28;20052;-72
2022/05/04 05:45:58;;;;;;;21.40;16.23;;;18.50;89.90;;;;;;5036082;28;20018;-73
2022/05/04 05:48:24;;;;;;;27.73;17.33;;;18.60;89.00;;;;;;5036425;28;20049;-73
2022/05/04 05:50:51;;;;;;;21.20;16.38;;;18.80;88.00;;;;;;5036212;28;20371;-73
2022/05/04 05:53:16;;;;;;;25.35;16.30;;;18.90;87.20;;;;;;5035932;28;20040;-74
2022/05/04 05:55:42;;;;;;;22.48;16.58;;;18.90;86.70;;;;;;5035771;28;20394;-75
2022/05/04 05:58:09;;;;;;;23.40;16.15;;;19.00;86.20;;;;;;5036125;28;20045;-71
2022/05/04 06:00:36;;;;;;;20.67;16.45;;;19.10;85.50;;;;;;5036140;28;20479;-75
2022/05/04 06:03:02;;;;;;;29.02;17.48;;;19.10;85.10;;;;;;5051691;28;20044;-72
2022/05/04 06:05:28;;;;;;;27.45;16.20;;;19.20;84.40;;;;;;5036405;28;20103;-73
2022/05/04 06:07:54;;;;;;;21.83;16.73;;;19.30;83.70;;;;;;5036444;28;20489;-72
2022/05/04 06:10:20;;;;;;;21.40;15.95;;;19.40;83.20;;;;;;5036055;28;20029;-75
2022/05/04 06:12:46;;;;;;;20.05;16.80;;;19.30;83.10;;;;;;5036284;28;20375;-74
2022/05/04 06:15:12;;;;;;;25.05;16.90;;;19.30;83.00;;;;;;5035654;28;20013;-74
2022/05/04 06:17:38;;;;;;;20.75;16.40;;;19.30;82.60;;;;;;5035606;28;20513;-74
2022/05/04 06:20:05;;;;;;;23.27;17.40;;;19.00;83.30;;;;;;5034189;28;20032;-76
2022/05/04 06:22:31;;;;;;;26.42;17.75;;;18.80;84.40;;;;;;5050792;28;20026;-74
2022/05/04 06:24:57;;;;;;;31.23;17.23;;;18.70;84.50;;;;;;5051070;28;20107;-73
2022/05/04 06:27:24;;;;;;;38.42;30.58;;;18.70;85.00;;;;;;5035595;28;20379;-73
2022/05/04 06:35:18;;;;;;;25.65;17.17;;;18.90;85.20;;;;;;5035740;28;20378;-75
2022/05/04 06:37:44;;;;;;;26.92;17.63;;;18.90;84.90;;;;;;5034026;28;20038;-75
2022/05/04 06:40:10;;;;;;;23.67;17.48;;;18.90;84.50;;;;;;5035287;28;20458;-75
2022/05/04 06:42:36;;;;;;;27.25;16.80;;;19.00;84.10;;;;;;5035124;28;20502;-75
2022/05/04 06:45:02;;;;;;;23.75;18.85;;;19.00;83.60;;;;;;5035249;28;20048;-76
2022/05/04 06:47:28;;;;;;;23.25;18.80;;;19.10;83.40;;;;;;5035334;28;20402;-74
2022/05/04 06:49:54;;;;;;;26.05;17.48;;;19.20;83.20;;;;;;5035113;28;20040;-76
2022/05/04 06:52:20;;;;;;;23.95;18.30;;;19.30;83.50;;;;;;5035123;28;20037;-75
2022/05/04 06:54:46;;;;;;;27.33;17.92;;;19.40;82.60;;;;;;5034805;28;20025;-75
2022/05/04 06:57:12;;;;;;;30.08;17.17;;;19.40;82.40;;;;;;5034995;28;20387;-75
2022/05/04 06:59:40;;;;;;;23.80;16.65;;;19.50;82.10;;;;;;5035008;28;20021;-75
2022/05/04 07:02:07;;;;;;;26.02;17.45;;;19.60;82.30;;;;;;5034779;28;20017;-76
2022/05/04 07:04:32;;;;;;;36.33;17.85;;;19.60;81.20;;;;;;5034844;28;20104;-75
2022/05/04 07:06:58;;;;;;;40.00;18.13;;;19.60;81.40;;;;;;5034684;28;20044;-77
2022/05/04 07:09:24;;;;;;;29.30;16.98;;;19.70;81.40;;;;;;5033325;28;20498;-75
2022/05/04 07:11:50;;;;;;;20.50;17.17;;;19.80;81.00;;;;;;5050031;28;20382;-76
2022/05/04 07:14:16;;;;;;;26.25;17.55;;;19.90;80.40;;;;;;5034484;28;20034;-77
2022/05/04 07:16:43;;;;;;;27.60;18.13;;;19.80;80.00;;;;;;5034669;28;20021;-74
2022/05/04 07:19:09;;;;;;;21.20;17.13;;;19.70;81.10;;;;;;5034408;28;20387;-76
2022/05/04 07:21:34;;;;;;;25.60;17.08;;;19.70;80.70;;;;;;5034522;28;20025;-75
2022/05/04 07:24:00;;;;;;;26.90;17.92;;;19.60;80.90;;;;;;5034379;28;20398;-76
2022/05/04 07:26:26;;;;;;;24.48;16.90;;;19.60;80.60;;;;;;5034305;28;20024;-74
2022/05/04 07:28:51;;;;;;;22.73;17.50;;;19.60;81.10;;;;;;5034456;28;20419;-77
2022/05/04 07:31:17;;;;;;;23.38;18.95;;;19.60;81.30;;;;;;5033313;28;20125;-75
2022/05/04 07:33:43;;;;;;;21.70;17.52;;;19.60;80.90;;;;;;5034079;28;20067;-76
2022/05/04 07:36:09;;;;;;;28.95;17.73;;;19.60;81.10;;;;;;5033848;28;20091;-76
2022/05/04 07:38:35;;;;;;;20.45;17.38;;;19.60;81.00;;;;;;5034007;28;20482;-76
2022/05/04 07:43:45;;;;;;;22.67;16.98;;;19.50;81.70;;;;;;5033894;28;20048;-75
2022/05/04 07:46:10;;;;;;;22.23;17.48;;;19.60;81.60;;;;;;5033759;28;20017;-76
2022/05/04 07:48:36;;;;;;;26.50;18.40;;;19.60;81.30;;;;;;5034065;28;20328;-77
2022/05/04 07:51:02;;;;;;;21.88;16.92;;;19.60;81.20;;;;;;5033680;28;20374;-75
2022/05/04 07:53:27;;;;;;;25.23;16.83;;;19.70;80.80;;;;;;5033193;28;20108;-76
2022/05/04 07:55:53;;;;;;;23.05;16.65;;;19.90;80.20;;;;;;5049320;28;20017;-76
2022/05/04 07:58:19;;;;;;;26.05;16.60;;;20.10;79.60;;;;;;5034288;28;20029;-75
2022/05/04 08:06:12;;;;;;;;;;;20.60;78.10;;;;;;5034067;28;20036;-75
2022/05/04 08:08:38;;;;;;;22.98;15.50;;;20.90;76.70;;;;;;5033518;28;19904;-77
2022/05/04 08:11:04;;;;;;;20.27;16.15;;;20.90;75.90;;;;;;5033520;28;20151;-75
2022/05/04 08:13:31;;;;;;;20.40;16.02;;;20.80;75.80;;;;;;5033524;28;20030;-76
2022/05/04 08:15:57;;;;;;;19.85;16.30;;;20.80;76.30;;;;;;5033384;28;20041;-76
2022/05/04 08:18:25;;;;;;;25.05;14.77;;;20.90;76.10;;;;;;5033210;28;20497;-76
2022/05/04 08:20:51;;;;;;;21.42;15.88;;;20.90;75.80;;;;;;5033440;28;20033;-76
2022/05/04 08:23:16;;;;;;;22.45;15.73;;;21.00;75.70;;;;;;5033333;28;20025;-75
2022/05/04 08:25:43;;;;;;;22.40;15.23;;;21.00;75.50;;;;;;5033214;28;20049;-77
2022/05/04 08:28:12;;;;;;;22.35;15.25;;;21.10;75.20;;;;;;5031962;28;20164;-77
2022/05/04 08:30:39;;;;;;;48.47;15.90;;;21.10;74.90;;;;;;5048313;28;20053;-77
2022/05/04 08:33:06;;;;;;;49.13;14.90;;;21.30;74.50;;;;;;5033159;28;20448;-74
2022/05/04 08:35:32;;;;;;;40.70;14.82;;;21.30;73.60;;;;;;5032896;28;20045;-75
2022/05/04 08:37:59;;;;;;;69.68;17.27;;;21.40;73.10;;;;;;5033170;28;20033;-75
2022/05/04 08:40:25;;;;;;;30.45;15.05;;;21.50;73.20;;;;;;5031876;28;20110;-75
2022/05/04 08:42:53;;;;;;;24.42;13.60;;;21.50;72.90;;;;;;5033058;28;20420;-76
2022/05/04 08:45:19;;;;;;;15.35;12.50;;;21.50;72.90;;;;;;5031759;28;20092;-78
2022/05/04 08:47:45;;;;;;;23.83;12.48;;;21.50;72.10;;;;;;5033143;28;20382;-77
2022/05/04 08:50:15;;;;;;;25.27;14.73;;;21.40;71.10;;;;;;5032809;28;20018;-77
2022/05/04 08:52:44;;;;;;;22.85;13.38;;;21.50;71.30;;;;;;5033082;28;20482;-77
2022/05/04 08:55:10;;;;;;;21.75;14.27;;;21.40;71.20;;;;;;5032777;28;20247;-77
2022/05/04 08:57:38;;;;;;;19.48;13.98;;;21.40;70.80;;;;;;5032743;28;20029;-77
2022/05/04 09:00:04;;;;;;;25.75;15.18;;;21.50;71.00;;;;;;5048272;28;20463;-77
2022/05/04 09:02:30;;;;;;;25.05;15.30;;;21.60;70.40;;;;;;5032618;28;20060;-75
2022/05/04 09:05:14;;;;;;;37.75;14.57;;;21.70;71.10;;;;;;5032328;28;20030;-77
2022/05/04 09:07:40;;;;;;;30.55;16.10;;;21.80;69.90;;;;;;5037023;28;20053;-78
2022/05/04 09:10:06;;;;;;;25.95;14.43;;;21.90;70.10;;;;;;5036723;28;20049;-77
2022/05/04 09:12:33;;;;;;;23.67;15.13;;;22.00;69.50;;;;;;5035481;28;20032;-77
2022/05/04 09:14:59;;;;;;;23.02;14.35;;;22.10;69.40;;;;;;5036757;28;20105;-76
2022/05/04 09:17:25;;;;;;;21.55;14.07;;;22.20;68.80;;;;;;5036398;28;20044;-76
2022/05/04 09:22:40;;;;;;;16.08;12.65;;;22.10;68.80;;;;;;5036818;28;20080;-76
2022/05/04 09:25:18;;;;;;;24.75;13.80;;;22.20;67.90;;;;;;5035213;28;20109;-78
2022/05/04 09:27:48;;;;;;;19.90;11.80;;;22.30;65.60;;;;;;5036569;28;20030;-76
2022/05/04 09:30:15;;;;;;;20.02;12.10;;;22.40;67.20;;;;;;5037038;28;20383;-76
2022/05/04 09:32:41;;;;;;;17.92;13.32;;;22.60;66.80;;;;;;5036624;28;20037;-75
2022/05/04 09:35:13;;;;;;;17.85;12.00;;;22.70;66.10;;;;;;5018489;28;20116;-77
2022/05/04 09:45:54;;;;;;;10.35;7.32;;;22.80;59.90;;;;;;5036450;28;20454;-75
2022/05/04 09:48:34;;;;;;;10.57;6.63;;;22.80;59.90;;;;;;5051755;28;20562;-75
2022/05/04 09:51:08;;;;;;;23.75;8.27;;;22.70;58.80;;;;;;5036046;28;20028;-76
2022/05/04 09:53:36;;;;;;;10.77;6.82;;;22.70;58.70;;;;;;5051281;28;20095;-75
2022/05/04 09:56:03;;;;;;;10.00;8.18;;;22.70;58.20;;;;;;5036130;28;20060;-75
2022/05/04 09:58:30;;;;;;;9.98;6.85;;;22.50;57.70;;;;;;5036053;28;20036;-76
2022/05/04 10:00:58;;;;;;;11.80;7.28;;;22.40;58.10;;;;;;5051148;28;20478;-76
2022/05/04 10:03:24;;;;;;;12.13;7.82;;;22.20;57.90;;;;;;5035769;28;20052;-76
2022/05/04 10:05:50;;;;;;;12.40;7.18;;;22.10;58.00;;;;;;5035908;28;20021;-75
2022/05/04 10:08:16;;;;;;;10.45;6.70;;;22.00;58.00;;;;;;5035571;28;20083;-76
2022/05/04 10:10:43;;;;;;;12.20;6.82;;;22.00;57.80;;;;;;5035766;28;20132;-77
2022/05/04 10:13:09;;;;;;;11.60;7.40;;;22.00;57.70;;;;;;5036079;28;20032;-76
2022/05/04 10:15:37;;;;;;;16.23;7.25;;;22.10;58.10;;;;;;5034979;28;20112;-78
2022/05/04 10:18:04;;;;;;;25.77;8.38;;;22.10;57.50;;;;;;5035467;28;20040;-75
2022/05/04 10:20:38;;;;;;;17.10;8.98;;;22.30;57.80;;;;;;5035745;28;20028;-75
2022/05/04 10:23:21;;;;;;;12.50;9.13;;;22.40;58.10;;;;;;5035801;28;20036;-75
2022/05/04 10:25:48;;;;;;;12.27;8.52;;;22.30;57.00;;;;;;5035571;28;20022;-76
2022/05/04 10:28:15;;;;;;;11.95;8.77;;;22.30;58.00;;;;;;5036002;28;20025;-76
2022/05/04 10:30:47;;;;;;;11.63;8.15;;;22.30;58.30;;;;;;5035998;28;20022;-79
2022/05/04 10:33:17;;;;;;;13.95;8.48;;;22.40;58.30;;;;;;5050822;28;20074;-77
2022/05/04 10:35:44;;;;;;;14.07;9.13;;;22.40;58.20;;;;;;5035058;28;20054;-76
2022/05/04 10:38:26;;;;;;;65.47;11.00;;;22.30;58.00;;;;;;5035332;28;20560;-76
2022/05/04 10:41:00;;;;;;;27.25;8.70;;;22.30;57.30;;;;;;5035469;28;20107;-76
2022/05/04 10:43:37;;;;;;;17.38;8.95;;;22.40;58.30;;;;;;5035012;28;20029;-77
2022/05/04 10:46:17;;;;;;;17.35;7.50;;;22.50;58.00;;;;;;5034737;28;20030;-77
2022/05/04 10:48:49;;;;;;;13.55;5.85;;;22.60;57.90;;;;;;5050481;28;20026;-77
2022/05/04 10:51:24;;;;;;;12.60;5.22;;;22.60;56.80;;;;;;5033707;28;20028;-76
2022/05/04 10:54:15;;;;;;;10.02;5.18;;;22.70;55.50;;;;;;5033436;28;20112;-75
2022/05/04 10:56:45;;;;;;;8.52;5.45;;;22.70;55.00;;;;;;5031905;28;20052;-77
2022/05/04 10:59:22;;;;;;;11.95;5.82;;;22.70;54.40;;;;;;5034612;28;20043;-76
2022/05/04 11:01:47;;;;;;;9.55;5.00;;;22.70;54.80;;;;;;5050361;28;20041;-77
2022/05/04 11:04:22;;;;;;;9.95;5.18;;;22.80;54.10;;;;;;5034621;28;20387;-75
2022/05/04 11:06:53;;;;;;;11.30;4.60;;;22.80;53.60;;;;;;5035045;28;20071;-77
2022/05/04 11:09:31;;;;;;;9.55;5.72;;;22.90;53.50;;;;;;5050089;28;20044;-76
2022/05/04 11:12:01;;;;;;;19.10;6.03;;;23.00;53.50;;;;;;5034571;28;20026;-76
2022/05/04 11:14:28;;;;;;;9.40;4.82;;;23.10;53.90;;;;;;5033297;28;20053;-76
2022/05/04 11:16:55;;;;;;;9.00;5.25;;;23.10;53.60;;;;;;5049568;28;20045;-74
2022/05/04 11:19:33;;;;;;;10.02;4.60;;;23.10;52.60;;;;;;5034596;28;20042;-76
2022/05/04 11:22:01;;;;;;;9.55;4.50;;;23.10;52.20;;;;;;5049857;28;20116;-77
2022/05/04 11:24:27;;;;;;;7.88;4.88;;;23.20;53.00;;;;;;5034410;28;20111;-76
2022/05/04 11:26:54;;;;;;;10.23;5.25;;;23.30;52.60;;;;;;5034097;28;20025;-76
2022/05/04 11:29:21;;;;;;;10.85;5.28;;;23.20;52.40;;;;;;5033855;28;20467;-76
2022/05/04 11:31:59;;;;;;;8.13;4.93;;;23.10;52.50;;;;;;5034384;28;20054;-76
2022/05/04 11:34:33;;;;;;;9.05;5.10;;;23.10;51.90;;;;;;5034084;28;20431;-76
2022/05/04 11:37:07;;;;;;;12.27;5.53;;;23.00;51.80;;;;;;5033916;28;20103;-76
2022/05/04 11:39:33;;;;;;;6.65;4.88;;;23.10;51.80;;;;;;5034179;28;20151;-78
2022/05/04 11:42:00;;;;;;;10.75;5.55;;;23.20;51.80;;;;;;5034169;28;20021;-75
2022/05/04 11:44:28;;;;;;;9.32;4.95;;;23.30;51.40;;;;;;5049148;28;20030;-76
2022/05/04 11:46:55;;;;;;;9.23;5.72;;;23.30;51.10;;;;;;5034207;28;20049;-77
2022/05/04 11:49:24;;;;;;;10.38;5.85;;;23.30;51.30;;;;;;5033999;28;20379;-76
2022/05/04 11:51:51;;;;;;;8.45;5.50;;;23.40;51.50;;;;;;5049115;28;20107;-77
2022/05/04 11:54:18;;;;;;;13.45;5.25;;;23.60;51.80;;;;;;5049035;28;20036;-76
2022/05/04 11:56:44;;;;;;;8.32;5.30;;;23.80;51.40;;;;;;5048859;28;20055;-77
2022/05/04 11:59:09;;;;;;;12.35;5.22;;;23.90;50.90;;;;;;5032071;28;20037;-76
2022/05/04 12:01:36;;;;;;;9.80;5.35;;;24.00;50.90;;;;;;5033832;28;20353;-76
2022/05/04 12:04:06;;;;;;;10.45;5.60;;;24.30;51.20;;;;;;5033698;28;20053;-75
2022/05/04 12:06:33;;;;;;;8.60;5.57;;;24.50;51.00;;;;;;5048704;28;20155;-76
2022/05/04 12:08:59;;;;;;;10.65;5.60;;;24.70;50.90;;;;;;5048783;28;20071;-76
2022/05/04 12:11:28;;;;;;;9.63;5.57;;;24.70;51.20;;;;;;5033623;28;20467;-75
2022/05/04 12:13:56;;;;;;;9.02;5.38;;;24.70;51.70;;;;;;5033652;28;20068;-77
2022/05/04 12:16:22;;;;;;;7.78;5.25;;;24.70;51.90;;;;;;5033696;28;20037;-76
2022/05/04 12:18:49;;;;;;;9.52;5.60;;;24.80;51.90;;;;;;5033832;28;20126;-75
2022/05/04 12:21:17;;;;;;;11.10;5.38;;;24.80;51.70;;;;;;5049257;28;20029;-76
2022/05/04 12:23:45;;;;;;;9.25;5.97;;;24.60;52.20;;;;;;5033700;28;20029;-78
2022/05/04 12:26:13;;;;;;;8.98;5.35;;;24.50;52.50;;;;;;5049077;28;20117;-76
2022/05/04 12:28:41;;;;;;;7.30;5.70;;;24.40;53.10;;;;;;5034035;28;20424;-76
2022/05/04 12:33:54;;;;;;;11.55;6.05;;;24.20;53.60;;;;;;5033724;28;20037;-75
2022/05/04 12:36:23;;;;;;;15.30;7.10;;;24.10;54.00;;;;;;5048320;28;20103;-76
2022/05/04 12:38:50;;;;;;;11.75;5.30;;;24.00;53.80;;;;;;5033116;28;20048;-76
2022/05/04 12:41:21;;;;;;;9.52;5.45;;;24.00;53.60;;;;;;5033107;28;20049;-76
2022/05/04 12:43:51;;;;;;;8.43;5.28;;;24.20;53.60;;;;;;5033378;28;20026;-77
2022/05/04 12:46:18;;;;;;;8.70;5.63;;;24.40;53.40;;;;;;5031700;28;20021;-78
2022/05/04 12:48:46;;;;;;;18.05;5.40;;;24.40;52.90;;;;;;5033107;28;20036;-76
2022/05/04 12:51:14;;;;;;;11.05;5.18;;;24.30;52.80;;;;;;5033025;28;20379;-77
2022/05/04 12:53:40;;;;;;;9.55;5.50;;;24.20;53.00;;;;;;5033035;28;20039;-75
2022/05/04 12:58:53;;;;;;;16.17;5.18;;;24.20;53.00;;;;;;5033109;28;20048;-76
2022/05/04 13:01:27;;;;;;;9.52;4.93;;;24.50;52.90;;;;;;5032033;28;20040;-75
2022/05/04 13:03:53;;;;;;;9.20;5.40;;;24.70;52.60;;;;;;5032707;28;20442;-79
2022/05/04 13:06:19;;;;;;;8.10;4.18;;;24.90;52.60;;;;;;5031373;28;20017;-78
2022/05/04 13:08:46;;;;;;;7.90;4.97;;;25.00;52.30;;;;;;5047855;28;20026;-77
2022/05/04 13:11:12;;;;;;;33.92;6.47;;;25.00;51.70;;;;;;5032830;28;20034;-77
2022/05/04 13:13:38;;;;;;;34.10;7.03;;;25.00;50.40;;;;;;5032726;28;20029;-77